• Join FlightAware (Why Join?)
  • Login
  • US Flag 
10:57AM EDT


 

Airport Tracker/Info


-or-


 

Live Flight TrackerFlight Track Log ✈ UAL4431 ✈ 17-Apr-2013 ✈ KCLE - KMSN

Flight Track Log - Related Links

Times and Time Zones

All times are in EDT time to prevent confusion due to time zone crossing. See the UAL4431 flight status page for this flight to view local times or setup timezone preferences in your user account.

Time Position Orientation Groundspeed Altitude Reporting Facility
EDT Latitude Longitude Course Direction KTS MPH feet Rate Location/Type
06:42PM 41.4214 -81.8375 355° North 173 199 1,900  Level Cleveland Center
06:43PM 41.4797 -81.8442 355° North 264 304 3,500 2,160 Climbing Cleveland Center
06:44PM 41.5422 -81.8564 352° North 262 302 5,800 2,760 Climbing Cleveland Center
06:45PM 41.5433 -81.9397 271° West 220 253 8,700 2,700 Climbing Cleveland Center
06:46PM 41.5175 -82.0058 242° Southwest 242 278 11,300 2,280 Climbing Cleveland Center
06:47PM 41.4831 -82.0881 241° Southwest 254 292 13,300 1,980 Climbing Cleveland Center
06:48PM 41.4464 -82.1814 242° Southwest 268 308 15,300 1,740 Climbing Cleveland Center
06:49PM 41.4056 -82.2775 240° Southwest 286 329 16,800 900 Climbing Cleveland Center
06:50PM 41.3600 -82.3897 242° Southwest 326 375 17,200 1,020 Climbing Cleveland Center
06:51PM 41.3142 -82.5072 243° Southwest 356 410 18,900 1,620 Climbing Cleveland Center
06:52PM 41.2889 -82.6475 257° West 362 417 20,500 2,100 Climbing Cleveland Center
06:53PM 41.2742 -82.7686 261° West 353 406 23,200 2,400 Climbing Cleveland Center
06:54PM 41.2572 -82.8867 259° West 334 384 25,400 2,160 Climbing Cleveland Center
06:55PM 41.2569 -82.9917 270° West 311 358 27,500 1,920 Climbing Cleveland Center
06:56PM 41.3117 -83.0767 311° West 284 327 29,300 1,200 Climbing Cleveland Center
06:57PM 41.3725 -83.1511 317° Northwest 284 327 30,000 780 Climbing Cleveland Center
06:58PM 41.4353 -83.2311 316° Northwest 305 351 30,900 900 Climbing Cleveland Center
06:59PM 41.4850 -83.3356 302° West 316 364 31,900 540 Climbing Cleveland Center
07:00PM 41.5278 -83.4539 296° West 334 384 32,000  Climbing Cleveland Center
07:01PM 41.5725 -83.5808 295° West 355 409 32,000  Level Cleveland Center
07:02PM 41.6131 -83.6994 295° West 376 433 32,000  Level Cleveland Center
07:03PM 41.6636 -83.8325 297° West 396 456 32,000  Level Cleveland Center
07:04PM 41.7119 -83.9658 296° West 396 456 32,000  Level Cleveland Center
07:05PM 41.7558 -84.1017 293° West 396 456 32,000  Level Cleveland Center
07:07PM 41.8547 -84.3756 296° West 399 459 32,000  Level Chicago Center
07:08PM 41.9028 -84.5094 296° West 400 460 32,000  Level Chicago Center
07:09PM 41.9489 -84.6464 294° West 403 464 32,000  Level Chicago Center
07:10PM 41.9972 -84.7900 294° West 404 465 32,000  Level Chicago Center
07:11PM 42.0436 -84.9303 294° West 408 470 32,000  Level Chicago Center
07:12PM 42.0903 -85.0686 294° West 409 471 32,000  Level Chicago Center
07:13PM 42.1500 -85.1961 302° West 410 472 32,000  Level Chicago Center
07:14PM 42.2144 -85.3189 305° West 404 465 32,000  Level Chicago Center
07:15PM 42.2903 -85.4664 305° West 400 460 32,000  Level Chicago Center
07:16PM 42.3536 -85.5889 305° West 398 458 32,000  Level Chicago Center
07:17PM 42.4067 -85.7103 301° West 382 440 32,000  Level Chicago Center
07:18PM 42.4447 -85.8486 290° West 389 448 32,000 -360 Level Chicago Center
07:19PM 42.4853 -85.9872 292° West 394 453 31,300 -840 Descending Chicago Center
07:20PM 42.5267 -86.1300 292° West 402 463 30,300 -660 Descending Chicago Center
07:21PM 42.5672 -86.2761 291° West 410 472 30,000 -180 Descending Chicago Center
07:22PM 42.6089 -86.4219 291° West 412 474 30,000  Level Chicago Center
07:23PM 42.6506 -86.5703 291° West 417 480 30,000  Level Chicago Center
07:24PM 42.6917 -86.7186 291° West 417 480 30,000  Level Chicago Center
07:25PM 42.7344 -86.8681 291° West 424 488 30,000  Level Chicago Center
07:26PM 42.7747 -87.0178 290° West 423 487 30,000  Level Chicago Center
07:27PM 42.8150 -87.1689 290° West 423 487 30,000 -360 Level Chicago Center
07:28PM 42.8650 -87.3497 291° West 425 489 29,300 -1,080 Descending Chicago Center
07:29PM 42.8875 -87.5011 282° West 408 470 27,900 -1,680 Descending Chicago Center
07:30PM 42.9094 -87.6567 281° West 414 476 25,900 -1,920 Descending Chicago Center
07:31PM 42.9314 -87.8128 281° West 417 480 24,000 -2,160 Descending Chicago Center
07:32PM 42.9528 -87.9603 281° West 399 459 21,500 -2,520 Descending Chicago Center
07:33PM 42.9722 -88.1000 281° West 376 433 18,900 -2,460 Descending Chicago Center
07:34PM 42.9914 -88.2389 281° West 371 427 16,600 -2,100 Descending Chicago Center
07:35PM 43.0094 -88.3697 281° West 352 405 14,700 -1,260 Descending Chicago Center
07:36PM 43.0250 -88.4781 281° West 293 337 14,100 -360 Descending Chicago Center
07:37PM 43.0389 -88.5803 281° West 275 316 14,000 -180 Descending Chicago Center
07:38PM 43.0536 -88.6881 281° West 283 326 13,800 -1,500 Descending Chicago Center
07:39PM 43.0706 -88.8103 281° West 279 321 11,000 -2,340 Descending Chicago Center
07:40PM 43.0833 -88.9119 280° West 271 312 9,100 -2,040 Descending Chicago Center
07:41PM 43.0886 -89.0022 275° West 244 281 6,900 -1,560 Descending Chicago Center
07:42PM 43.1100 -89.0814 290° West 248 285 6,000 -540 Descending Chicago Center
07:43PM 43.1800 -89.1081 344° North 258 297 5,900 -480 Descending Chicago Center
07:44PM 43.2481 -89.1372 343° North 257 296 5,100 -840 Descending Chicago Center
07:45PM 43.3175 -89.1714 340° North 259 298 4,200 -780 Descending Chicago Center
07:46PM 43.3864 -89.2108 337° Northwest 264 304 3,600 -600 Descending Chicago Center
07:47PM 43.3981 -89.2844 282° West 252 290 3,100 -360 Descending Chicago Center
07:48PM 43.3344 -89.3025 192° South 240 276 2,900 -120 Descending Chicago Center
07:49PM 43.2781 -89.3342 202° Southwest 230 265 2,900 -240 Level Chicago Center
07:50PM 43.2289 -89.3389 184° South 179 206 2,500 -600 Descending Chicago Center
07:51PM 43.1911 -89.3397 181° South 149 171 1,800 -720 Descending Chicago Center
07:52PM 43.1589 -89.3406 181° South 141 162 1,100 -720 Descending Chicago Center